59TN weather

Burnett Heliport
Atoka, Tennessee, United States

Public forecast

Using degrees Fahrenheit for public forecast. Weather courtesy of forecast.io.

Closest aviation weather report (METAR) to Burnett Heliport

Closest report is Millington-Memphis Airport, 9.8 nm (18.2 km) WSW. Retrieved 2019/10/16 06:35 UTC (0 seconds ago):

KNQA 160635Z AUTO 36004KT 10SM BKN013 OVC033 17/17 A2988 RMK A01

Closest aviation forecast (TAF) to Burnett Heliport

Closest forecast is Memphis International Airport, 25.9 nm (47.9 km) SW. Retrieved 2019/10/16 06:24 UTC (0 seconds ago):

TAF KMEM 160521Z 1606/1712 35012G20KT P6SM VCSH BKN025 BKN050 TEMPO 1606/1608 -SHRA BKN015 FM161200 36012KT P6SM SKC FM170100 34003KT P6SM SKC